Time;durP1;ratioP1;P1;durP2;ratioP2;P2;SDS_P1;SDS_P2;PMS_P1;PMS_P2;Temp;Humidity;BMP_temperature;BMP_pressure;BME280_temperature;BME280_humidity;BME280_pressure;Samples;Min_cycle;Max_cycle;Signal;HPM_P1;HPM_P2
2021/12/16 00:08:07;;;;;;;14.83;10.53;;;;;;;;;;5074125;28;20755;-73
2021/12/16 00:10:47;;;;;;;16.73;10.07;;;;;;;;;;5074256;28;20433;-73
2021/12/16 00:34:57;;;;;;;13.30;8.67;;;;;;;;;;5073688;28;20399;-72
2021/12/16 00:37:23;;;;;;;15.27;9.80;;;;;;;;;;5073339;28;20966;-73
2021/12/16 00:39:49;;;;;;;13.80;9.20;;;;;;;;;;5071732;28;20488;-72
2021/12/16 00:42:52;;;;;;;13.53;9.20;;;;;;;;;;5073233;28;20474;-72
2021/12/16 00:47:50;;;;;;;11.90;8.37;;;;;;;;;;5073162;28;20833;-73
2021/12/16 00:55:50;;;;;;;15.33;9.80;;;;;;;;;;5073425;28;20415;-74
2021/12/16 00:58:20;;;;;;;16.50;9.87;;;;;;;;;;5073112;28;20417;-72
2021/12/16 01:00:56;;;;;;;17.00;9.90;;;;;;;;;;5071805;28;20555;-74
2021/12/16 01:03:45;;;;;;;15.00;9.80;;;;;;;;;;5073108;28;20392;-72
2021/12/16 01:36:14;;;;;;;14.80;9.13;;;;;;;;;;5076665;28;20403;-72
2021/12/16 01:49:37;;;;;;;17.20;9.93;;;;;;;;;;5076481;28;20823;-70
2021/12/16 01:52:29;;;;;;;16.70;9.63;;;;;;;;;;5076355;28;20423;-69
2021/12/16 01:57:30;;;;;;;19.50;11.30;;;;;;;;;;5076017;28;20532;-70
2021/12/16 02:00:07;;;;;;;16.53;9.20;;;;;;;;;;5076052;28;20459;-73
2021/12/16 02:05:17;;;;;;;16.87;11.03;;;;;;;;;;5075924;28;20436;-73
2021/12/16 02:08:16;;;;;;;16.23;9.80;;;;;;;;;;5074813;28;20417;-73
2021/12/16 02:10:47;;;;;;;18.43;10.70;;;;;;;;;;5075763;28;20795;-72
2021/12/16 02:13:38;;;;;;;17.57;10.57;;;;;;;;;;5074677;28;20396;-73
2021/12/16 02:29:54;;;;;;;15.73;9.50;;;;;;;;;;5075628;28;20480;-73
2021/12/16 02:37:33;;;;;;;14.57;9.30;;;;;;;;;;5075323;28;20501;-72
2021/12/16 02:40:00;;;;;;;15.10;9.27;;;;;;;;;;5075245;28;21009;-73
2021/12/16 02:42:36;;;;;;;16.00;9.90;;;;;;;;;;5075415;28;20410;-73
2021/12/16 02:50:20;;;;;;;18.03;10.47;;;;;;;;;;5075550;28;20397;-73
2021/12/16 02:52:47;;;;;;;18.07;10.03;;;;;;;;;;5075054;28;20409;-72
2021/12/16 02:55:14;;;;;;;18.17;11.00;;;;;;;;;;5075069;28;20405;-74
2021/12/16 02:58:00;;;;;;;18.87;10.80;;;;;;;;;;5074864;28;20456;-73
2021/12/16 03:00:27;;;;;;;18.73;10.73;;;;;;;;;;5075056;28;20535;-72
2021/12/16 03:02:53;;;;;;;19.63;11.77;;;;;;;;;;5074966;28;20409;-71
2021/12/16 03:05:21;;;;;;;19.73;11.00;;;;;;;;;;5074894;28;20404;-73
2021/12/16 03:07:47;;;;;;;20.40;11.30;;;;;;;;;;5074810;28;20414;-74
2021/12/16 03:13:03;;;;;;;21.30;12.10;;;;;;;;;;5074796;28;20908;-73
2021/12/16 03:18:09;;;;;;;18.43;10.80;;;;;;;;;;5074553;28;20424;-72
2021/12/16 03:20:49;;;;;;;21.00;11.00;;;;;;;;;;5074552;28;20552;-73
2021/12/16 03:23:32;;;;;;;17.97;10.60;;;;;;;;;;5074574;28;20980;-73
2021/12/16 03:37:01;;;;;;;19.90;11.50;;;;;;;;;;5074225;28;20397;-74
2021/12/16 03:39:30;;;;;;;21.03;11.70;;;;;;;;;;5074219;28;20434;-72
2021/12/16 03:41:56;;;;;;;17.50;11.27;;;;;;;;;;5074107;28;21014;-71
2021/12/16 03:44:32;;;;;;;17.33;10.33;;;;;;;;;;5074132;28;20402;-73
2021/12/16 03:46:58;;;;;;;16.90;9.60;;;;;;;;;;5074002;28;20483;-73
2021/12/16 03:49:25;;;;;;;19.27;11.30;;;;;;;;;;5074139;28;20976;-72
2021/12/16 03:51:57;;;;;;;16.73;11.00;;;;;;;;;;5073901;28;20442;-72
2021/12/16 03:54:28;;;;;;;15.83;9.80;;;;;;;;;;5072767;28;20814;-72
2021/12/16 03:56:55;;;;;;;17.17;9.53;;;;;;;;;;5073765;28;20444;-71
2021/12/16 03:59:26;;;;;;;17.40;10.07;;;;;;;;;;5072593;28;20470;-73
2021/12/16 04:01:53;;;;;;;16.17;9.73;;;;;;;;;;5073709;28;20851;-73
2021/12/16 04:04:19;;;;;;;17.57;11.03;;;;;;;;;;5072050;28;20923;-72
2021/12/16 04:06:45;;;;;;;17.93;9.93;;;;;;;;;;5073682;28;20427;-73
2021/12/16 04:09:12;;;;;;;18.00;10.80;;;;;;;;;;5072475;28;20406;-73
2021/12/16 04:11:42;;;;;;;17.97;10.03;;;;;;;;;;5073517;28;20428;-73
2021/12/16 04:14:10;;;;;;;20.03;10.10;;;;;;;;;;5073703;28;20436;-71
2021/12/16 04:16:38;;;;;;;18.20;10.13;;;;;;;;;;5073550;28;20436;-71
2021/12/16 04:19:09;;;;;;;19.40;11.03;;;;;;;;;;5073520;28;20410;-72
2021/12/16 04:21:37;;;;;;;18.40;11.20;;;;;;;;;;5073419;28;20517;-72
2021/12/16 04:24:03;;;;;;;17.40;11.23;;;;;;;;;;5073343;28;20405;-74
2021/12/16 04:26:29;;;;;;;21.60;11.03;;;;;;;;;;5073400;28;20417;-70
2021/12/16 04:28:55;;;;;;;19.70;10.73;;;;;;;;;;5073328;28;20416;-73
2021/12/16 04:31:22;;;;;;;22.00;11.90;;;;;;;;;;5073291;28;20417;-74
2021/12/16 04:33:50;;;;;;;20.83;11.70;;;;;;;;;;5072016;28;20406;-72
2021/12/16 04:36:16;;;;;;;22.03;10.80;;;;;;;;;;5073355;28;20419;-72
2021/12/16 04:38:44;;;;;;;21.43;11.80;;;;;;;;;;5073234;28;20397;-71
2021/12/16 04:41:12;;;;;;;20.63;12.00;;;;;;;;;;5072871;28;20553;-73
2021/12/16 04:43:45;;;;;;;20.97;11.67;;;;;;;;;;5073206;28;20398;-71
2021/12/16 04:46:13;;;;;;;21.70;12.47;;;;;;;;;;5073224;28;20391;-73
2021/12/16 04:48:40;;;;;;;22.33;12.03;;;;;;;;;;5073202;28;20798;-72
2021/12/16 04:51:07;;;;;;;24.00;12.33;;;;;;;;;;5073142;28;20908;-72
2021/12/16 04:53:33;;;;;;;20.77;11.53;;;;;;;;;;5073217;28;20401;-73
2021/12/16 04:56:00;;;;;;;24.73;12.87;;;;;;;;;;5072854;28;20454;-73
2021/12/16 04:58:26;;;;;;;24.30;12.43;;;;;;;;;;5073093;28;20409;-71
2021/12/16 05:00:53;;;;;;;23.70;12.43;;;;;;;;;;5072978;28;20510;-73
2021/12/16 05:03:19;;;;;;;25.33;14.03;;;;;;;;;;5072900;28;20446;-73
2021/12/16 05:05:46;;;;;;;28.47;13.90;;;;;;;;;;5072990;28;20409;-72
2021/12/16 05:08:13;;;;;;;24.50;12.73;;;;;;;;;;5072927;28;20510;-74
2021/12/16 05:10:39;;;;;;;24.77;13.87;;;;;;;;;;5072920;28;20432;-73
2021/12/16 05:13:05;;;;;;;27.73;13.60;;;;;;;;;;5072955;28;20424;-72
2021/12/16 05:15:35;;;;;;;22.40;12.57;;;;;;;;;;5071653;28;20404;-69
2021/12/16 05:18:04;;;;;;;27.17;13.40;;;;;;;;;;5073015;28;20404;-73
2021/12/16 05:20:32;;;;;;;24.87;14.10;;;;;;;;;;5072855;28;20466;-71
2021/12/16 05:28:10;;;;;;;26.10;12.90;;;;;;;;;;5072730;28;20418;-72
2021/12/16 05:30:36;;;;;;;27.73;14.00;;;;;;;;;;5072793;28;20500;-72
2021/12/16 05:33:02;;;;;;;24.97;13.33;;;;;;;;;;5071522;28;20414;-72
2021/12/16 05:35:29;;;;;;;27.23;13.93;;;;;;;;;;5072735;28;20419;-72
2021/12/16 05:37:55;;;;;;;24.90;14.07;;;;;;;;;;5072614;28;20405;-72
2021/12/16 05:40:26;;;;;;;25.87;12.23;;;;;;;;;;5072448;28;20578;-71
2021/12/16 05:42:56;;;;;;;25.83;14.13;;;;;;;;;;5071368;28;20559;-72
2021/12/16 05:45:23;;;;;;;24.60;12.63;;;;;;;;;;5072588;28;20401;-72
2021/12/16 05:47:50;;;;;;;24.97;13.30;;;;;;;;;;5072688;28;20417;-73
2021/12/16 05:50:17;;;;;;;24.63;13.30;;;;;;;;;;5071426;28;20409;-71
2021/12/16 05:52:43;;;;;;;23.80;12.47;;;;;;;;;;5072569;28;20420;-69
2021/12/16 05:55:10;;;;;;;30.60;14.47;;;;;;;;;;5075592;28;21039;-74
2021/12/16 05:57:36;;;;;;;23.70;12.80;;;;;;;;;;5075831;28;20464;-73
2021/12/16 06:00:03;;;;;;;24.87;13.20;;;;;;;;;;5075971;28;20447;-73
2021/12/16 06:02:29;;;;;;;29.43;13.53;;;;;;;;;;5075983;28;20424;-73
2021/12/16 06:04:55;;;;;;;29.97;13.77;;;;;;;;;;5075932;28;20394;-73
2021/12/16 06:07:21;;;;;;;23.07;12.40;;;;;;;;;;5075888;28;20422;-70
2021/12/16 06:09:48;;;;;;;25.00;12.63;;;;;;;;;;5075955;28;20420;-73
2021/12/16 06:12:14;;;;;;;23.80;14.53;;;;;;;;;;5075805;28;20405;-73
2021/12/16 06:14:52;;;;;;;21.87;11.50;;;;;;;;;;5075621;28;20912;-74
2021/12/16 06:26:26;;;;;;;20.17;11.80;;;;;;;;;;5075786;28;20443;-74
2021/12/16 06:28:37;;;;;;;26.10;12.93;;;;;;;;;;5075488;28;20840;-71
2021/12/16 06:31:03;;;;;;;24.97;13.00;;;;;;;;;;5075488;28;20871;-72
2021/12/16 06:33:29;;;;;;;22.70;11.87;;;;;;;;;;5075301;28;20448;-71
2021/12/16 06:35:56;;;;;;;25.13;12.63;;;;;;;;;;5075405;28;20494;-73
2021/12/16 06:38:23;;;;;;;26.40;13.10;;;;;;;;;;5074220;28;20404;-74
2021/12/16 06:40:49;;;;;;;26.63;12.47;;;;;;;;;;5073871;28;20601;-72
2021/12/16 06:43:17;;;;;;;22.50;12.23;;;;;;;;;;5075243;28;20405;-73
2021/12/16 06:45:47;;;;;;;25.07;12.43;;;;;;;;;;5075002;28;20488;-68
2021/12/16 06:48:18;;;;;;;24.23;12.33;;;;;;;;;;5075323;28;20413;-71
2021/12/16 06:50:54;;;;;;;21.97;11.90;;;;;;;;;;5075211;28;20393;-73
2021/12/16 06:53:28;;;;;;;27.33;11.93;;;;;;;;;;5075344;28;20859;-71
2021/12/16 06:58:32;;;;;;;23.63;12.30;;;;;;;;;;5075064;28;20478;-72
2021/12/16 07:01:12;;;;;;;22.27;12.33;;;;;;;;;;5074951;28;20513;-73
2021/12/16 07:03:47;;;;;;;20.00;11.37;;;;;;;;;;5074766;28;20401;-71
2021/12/16 07:06:13;;;;;;;23.83;12.67;;;;;;;;;;5074638;28;20950;-71
2021/12/16 07:08:39;;;;;;;25.70;13.03;;;;;;;;;;5074836;28;20481;-72
2021/12/16 07:11:05;;;;;;;21.00;10.57;;;;;;;;;;5074589;28;20442;-69
2021/12/16 07:13:37;;;;;;;19.60;11.70;;;;;;;;;;5074808;28;20467;-72
2021/12/16 07:16:04;;;;;;;22.90;11.60;;;;;;;;;;5074735;28;20397;-72
2021/12/16 07:18:30;;;;;;;23.33;12.23;;;;;;;;;;5074552;28;20418;-74
2021/12/16 07:20:57;;;;;;;22.83;11.47;;;;;;;;;;5074465;28;20946;-72
2021/12/16 07:23:23;;;;;;;24.17;13.33;;;;;;;;;;5074297;28;20419;-72
2021/12/16 07:25:49;;;;;;;21.30;11.40;;;;;;;;;;5074542;28;20899;-69
2021/12/16 07:28:16;;;;;;;22.07;12.33;;;;;;;;;;5074422;28;20410;-73
2021/12/16 07:30:43;;;;;;;21.63;10.90;;;;;;;;;;5074380;28;20393;-73
2021/12/16 07:33:09;;;;;;;19.00;10.60;;;;;;;;;;5074353;28;20423;-70
2021/12/16 07:35:36;;;;;;;19.97;11.40;;;;;;;;;;5074287;28;20393;-72
2021/12/16 07:38:03;;;;;;;24.50;12.67;;;;;;;;;;5072936;28;20420;-73
2021/12/16 07:40:30;;;;;;;18.83;10.87;;;;;;;;;;5072655;28;20476;-67
2021/12/16 07:43:12;;;;;;;22.77;11.90;;;;;;;;;;5074088;28;20404;-67
2021/12/16 07:45:45;;;;;;;21.03;10.70;;;;;;;;;;5074149;28;20397;-68
2021/12/16 07:48:13;;;;;;;20.50;12.10;;;;;;;;;;5074029;28;20406;-68
2021/12/16 07:50:41;;;;;;;22.57;10.77;;;;;;;;;;5073940;28;20416;-68
2021/12/16 07:53:07;;;;;;;21.20;11.90;;;;;;;;;;5073866;28;20404;-68
2021/12/16 07:55:34;;;;;;;21.33;11.67;;;;;;;;;;5073846;28;20405;-68
2021/12/16 07:58:00;;;;;;;19.60;10.77;;;;;;;;;;5073766;28;20452;-70
2021/12/16 08:00:28;;;;;;;17.83;10.53;;;;;;;;;;5073760;28;21020;-67
2021/12/16 08:02:54;;;;;;;18.10;11.00;;;;;;;;;;5073640;28;20423;-72
2021/12/16 08:05:23;;;;;;;19.83;10.50;;;;;;;;;;5073566;28;20846;-71
2021/12/16 08:07:49;;;;;;;19.63;10.40;;;;;;;;;;5073560;28;20399;-72
2021/12/16 08:10:17;;;;;;;17.67;10.27;;;;;;;;;;5073516;28;20439;-74
2021/12/16 08:12:43;;;;;;;22.03;10.70;;;;;;;;;;5073527;28;20417;-70
2021/12/16 08:15:09;;;;;;;18.80;9.60;;;;;;;;;;5073507;28;20412;-72
2021/12/16 08:17:35;;;;;;;20.53;10.43;;;;;;;;;;5073128;28;20405;-71
2021/12/16 08:20:01;;;;;;;18.10;9.90;;;;;;;;;;5073441;28;20602;-73
2021/12/16 08:22:27;;;;;;;17.23;9.63;;;;;;;;;;5073335;28;20409;-69
2021/12/16 08:24:53;;;;;;;19.60;10.40;;;;;;;;;;5072227;28;20450;-72
2021/12/16 08:27:20;;;;;;;17.90;10.30;;;;;;;;;;5073338;28;20415;-72
2021/12/16 08:29:46;;;;;;;20.13;10.57;;;;;;;;;;5073380;28;20416;-72
2021/12/16 08:32:12;;;;;;;17.73;9.80;;;;;;;;;;5071940;28;20876;-69
2021/12/16 08:34:39;;;;;;;19.50;11.57;;;;;;;;;;5073228;28;20892;-73
2021/12/16 08:37:09;;;;;;;18.70;10.53;;;;;;;;;;5073135;28;20401;-73
2021/12/16 08:39:35;;;;;;;16.50;9.63;;;;;;;;;;5073067;28;20444;-70
2021/12/16 08:42:03;;;;;;;23.10;10.37;;;;;;;;;;5073133;28;20567;-68
2021/12/16 08:44:29;;;;;;;19.97;9.33;;;;;;;;;;5071702;28;20425;-68
2021/12/16 08:47:01;;;;;;;22.43;11.47;;;;;;;;;;5073033;28;20555;-71
2021/12/16 08:49:27;;;;;;;17.83;9.80;;;;;;;;;;5073205;28;20411;-68
2021/12/16 08:51:54;;;;;;;17.80;9.60;;;;;;;;;;5071793;28;20424;-67
2021/12/16 08:54:21;;;;;;;18.50;9.50;;;;;;;;;;5073006;28;20408;-68
2021/12/16 08:56:49;;;;;;;16.43;9.40;;;;;;;;;;5072834;28;20483;-68
2021/12/16 08:59:15;;;;;;;18.23;10.50;;;;;;;;;;5071855;28;20432;-68
2021/12/16 09:01:44;;;;;;;16.37;9.47;;;;;;;;;;5071786;28;20603;-69
2021/12/16 09:04:10;;;;;;;19.70;10.63;;;;;;;;;;5072874;28;20872;-73
2021/12/16 09:06:37;;;;;;;17.43;10.00;;;;;;;;;;5071577;28;20429;-73
2021/12/16 09:09:03;;;;;;;20.47;11.60;;;;;;;;;;5072755;28;20404;-73
2021/12/16 09:11:32;;;;;;;18.03;9.40;;;;;;;;;;5072815;28;20531;-75
2021/12/16 09:14:00;;;;;;;20.17;10.80;;;;;;;;;;5072951;28;20474;-74
2021/12/16 09:16:27;;;;;;;18.93;9.70;;;;;;;;;;5072694;28;20411;-72
2021/12/16 09:18:55;;;;;;;17.87;10.50;;;;;;;;;;5072840;28;20419;-71
2021/12/16 09:21:23;;;;;;;18.37;9.93;;;;;;;;;;5072748;28;20572;-72
2021/12/16 09:23:50;;;;;;;18.30;10.17;;;;;;;;;;5072678;28;20416;-74
2021/12/16 09:26:17;;;;;;;15.40;9.80;;;;;;;;;;5072638;28;20393;-72
2021/12/16 09:28:43;;;;;;;16.70;9.57;;;;;;;;;;5073640;28;20484;-73
2021/12/16 09:31:11;;;;;;;16.80;9.50;;;;;;;;;;5076749;28;20454;-73
2021/12/16 09:33:43;;;;;;;15.57;9.97;;;;;;;;;;5076474;28;20408;-73
2021/12/16 09:36:10;;;;;;;18.80;9.73;;;;;;;;;;5076613;28;20504;-73
2021/12/16 09:38:36;;;;;;;21.20;10.83;;;;;;;;;;5076623;28;20397;-72
2021/12/16 09:41:02;;;;;;;20.93;10.27;;;;;;;;;;5074966;28;20491;-74
2021/12/16 09:43:31;;;;;;;17.03;9.60;;;;;;;;;;5076297;28;20411;-72
2021/12/16 09:45:58;;;;;;;16.07;9.73;;;;;;;;;;5076365;28;20415;-73
2021/12/16 09:48:25;;;;;;;19.83;10.73;;;;;;;;;;5076486;28;20492;-74
2021/12/16 09:50:51;;;;;;;19.83;10.70;;;;;;;;;;5076160;28;20446;-73
2021/12/16 09:53:18;;;;;;;18.83;10.10;;;;;;;;;;5076232;28;20450;-74
2021/12/16 09:55:46;;;;;;;16.70;9.53;;;;;;;;;;5076174;28;20426;-75
2021/12/16 09:58:13;;;;;;;18.70;9.67;;;;;;;;;;5076156;28;20420;-73
2021/12/16 10:00:39;;;;;;;19.40;11.13;;;;;;;;;;5076058;28;20930;-72
2021/12/16 10:03:05;;;;;;;16.33;10.07;;;;;;;;;;5075976;28;20417;-74
2021/12/16 10:05:34;;;;;;;19.30;11.37;;;;;;;;;;5075977;28;20427;-73
2021/12/16 10:08:02;;;;;;;20.13;10.50;;;;;;;;;;5075849;28;20408;-72
2021/12/16 10:10:28;;;;;;;21.67;12.03;;;;;;;;;;5075903;28;20427;-73
2021/12/16 10:12:58;;;;;;;18.97;10.83;;;;;;;;;;5075786;28;20421;-74
2021/12/16 10:17:58;;;;;;;19.83;10.77;;;;;;;;;;5075926;28;20396;-74
2021/12/16 10:20:27;;;;;;;20.03;11.03;;;;;;;;;;5074405;28;20546;-72
2021/12/16 10:23:02;;;;;;;20.90;10.90;;;;;;;;;;5074362;28;20421;-72
2021/12/16 10:25:29;;;;;;;22.17;11.17;;;;;;;;;;5075700;28;20392;-72
2021/12/16 10:27:58;;;;;;;22.07;11.57;;;;;;;;;;5075845;28;20416;-72
2021/12/16 10:30:25;;;;;;;23.40;11.43;;;;;;;;;;5075811;28;20798;-72
2021/12/16 10:32:52;;;;;;;22.70;12.00;;;;;;;;;;5075646;28;20411;-73
2021/12/16 10:35:29;;;;;;;17.17;10.90;;;;;;;;;;5075376;28;20417;-72
2021/12/16 10:37:58;;;;;;;21.90;11.77;;;;;;;;;;5075472;28;20879;-74
2021/12/16 10:40:34;;;;;;;18.60;10.80;;;;;;;;;;5073635;28;20498;-73
2021/12/16 10:43:03;;;;;;;21.63;12.00;;;;;;;;;;5075390;28;20416;-71
2021/12/16 10:45:46;;;;;;;20.10;11.10;;;;;;;;;;5075262;28;20466;-71
2021/12/16 10:48:15;;;;;;;18.00;10.70;;;;;;;;;;5074924;28;20518;-74
2021/12/16 10:51:00;;;;;;;21.33;11.43;;;;;;;;;;5074853;28;20393;-74
2021/12/16 10:53:44;;;;;;;18.40;11.13;;;;;;;;;;5075131;28;20404;-72
2021/12/16 10:56:10;;;;;;;21.73;10.87;;;;;;;;;;5074864;28;21335;-73
2021/12/16 10:58:51;;;;;;;19.33;11.00;;;;;;;;;;5073796;28;20415;-72
2021/12/16 11:01:36;;;;;;;22.93;11.43;;;;;;;;;;5073686;28;20471;-74
2021/12/16 11:04:04;;;;;;;17.27;11.27;;;;;;;;;;5073569;28;20914;-74
2021/12/16 11:06:38;;;;;;;19.40;10.60;;;;;;;;;;5074946;28;20401;-74
2021/12/16 11:09:22;;;;;;;23.23;11.47;;;;;;;;;;5074779;28;20397;-71
2021/12/16 11:11:48;;;;;;;24.97;11.70;;;;;;;;;;5074852;28;20887;-69
2021/12/16 11:14:21;;;;;;;21.20;11.10;;;;;;;;;;5074750;28;20474;-71
2021/12/16 11:16:56;;;;;;;22.70;12.00;;;;;;;;;;5074669;28;20462;-69
2021/12/16 11:19:58;;;;;;;19.90;10.90;;;;;;;;;;5074688;28;20404;-70
2021/12/16 11:22:32;;;;;;;19.37;11.10;;;;;;;;;;4993198;28;20447;-68
2021/12/16 11:24:59;;;;;;;24.33;12.67;;;;;;;;;;5062434;28;20424;-68
2021/12/16 11:27:27;;;;;;;21.10;11.70;;;;;;;;;;5074454;28;20490;-72
2021/12/16 11:29:54;;;;;;;21.77;11.40;;;;;;;;;;5074387;28;20948;-70
2021/12/16 11:32:41;;;;;;;20.27;11.40;;;;;;;;;;5073039;28;20907;-68
2021/12/16 11:35:28;;;;;;;24.70;12.63;;;;;;;;;;5074279;28;20413;-68
2021/12/16 11:37:54;;;;;;;19.67;11.43;;;;;;;;;;5072839;28;21048;-68
2021/12/16 11:40:21;;;;;;;21.77;10.70;;;;;;;;;;5073803;28;20460;-67
2021/12/16 11:43:02;;;;;;;19.80;10.60;;;;;;;;;;5073977;28;20474;-69
2021/12/16 11:45:50;;;;;;;23.00;12.00;;;;;;;;;;5074027;28;20784;-76
2021/12/16 11:48:26;;;;;;;21.73;12.73;;;;;;;;;;5074182;28;20402;-73
2021/12/16 11:51:04;;;;;;;20.10;11.70;;;;;;;;;;5073360;28;20388;-74
2021/12/16 11:53:38;;;;;;;23.70;11.70;;;;;;;;;;5073909;28;20403;-73
2021/12/16 11:56:05;;;;;;;18.47;11.27;;;;;;;;;;5073537;28;20392;-73
2021/12/16 11:58:31;;;;;;;24.60;12.30;;;;;;;;;;5073923;28;20439;-76
2021/12/16 12:00:58;;;;;;;24.27;13.00;;;;;;;;;;5073712;28;20981;-76
2021/12/16 12:03:32;;;;;;;20.93;12.23;;;;;;;;;;5073822;28;20744;-75
2021/12/16 12:05:58;;;;;;;22.17;12.77;;;;;;;;;;5073704;28;20431;-74
2021/12/16 12:08:29;;;;;;;24.93;11.13;;;;;;;;;;5073660;28;20448;-74
2021/12/16 12:11:13;;;;;;;22.70;12.40;;;;;;;;;;5073601;28;20499;-74
2021/12/16 12:13:41;;;;;;;26.07;12.77;;;;;;;;;;5073699;28;20436;-73
2021/12/16 12:16:09;;;;;;;21.10;12.67;;;;;;;;;;5073265;28;20847;-72
2021/12/16 12:18:37;;;;;;;17.63;10.60;;;;;;;;;;5073494;28;20441;-75
2021/12/16 12:21:15;;;;;;;19.50;11.67;;;;;;;;;;5073514;28;20471;-74
2021/12/16 12:23:42;;;;;;;25.50;12.93;;;;;;;;;;5071954;28;20440;-71
2021/12/16 12:26:14;;;;;;;22.83;11.93;;;;;;;;;;5073351;28;20396;-76
2021/12/16 12:28:40;;;;;;;23.33;11.30;;;;;;;;;;5073430;28;20401;-75
2021/12/16 12:31:06;;;;;;;23.10;10.97;;;;;;;;;;5073275;28;20403;-74
2021/12/16 12:33:32;;;;;;;18.50;11.17;;;;;;;;;;5073266;28;20400;-75
2021/12/16 12:35:58;;;;;;;18.50;11.50;;;;;;;;;;5073150;28;20401;-74
2021/12/16 12:38:24;;;;;;;24.17;11.90;;;;;;;;;;5073243;28;20440;-75
2021/12/16 12:40:50;;;;;;;23.30;11.57;;;;;;;;;;5073063;28;20474;-74
2021/12/16 12:43:17;;;;;;;22.47;13.00;;;;;;;;;;5073151;28;20400;-75
2021/12/16 12:45:43;;;;;;;20.50;12.10;;;;;;;;;;5071799;28;20413;-75
2021/12/16 12:48:14;;;;;;;20.80;12.30;;;;;;;;;;5073177;28;20443;-75
2021/12/16 12:50:41;;;;;;;24.03;13.93;;;;;;;;;;5073171;28;20404;-73
2021/12/16 12:53:18;;;;;;;19.70;11.40;;;;;;;;;;5073132;28;20898;-74
2021/12/16 12:55:46;;;;;;;20.47;11.50;;;;;;;;;;5073053;28;20471;-76
2021/12/16 12:58:17;;;;;;;19.97;12.50;;;;;;;;;;5073053;28;20470;-75
2021/12/16 13:00:48;;;;;;;19.67;11.20;;;;;;;;;;5071683;28;20462;-74
2021/12/16 13:03:17;;;;;;;17.13;11.50;;;;;;;;;;5076163;28;20503;-75
2021/12/16 13:05:51;;;;;;;18.87;11.63;;;;;;;;;;5079704;28;20396;-73
2021/12/16 13:08:18;;;;;;;19.07;12.07;;;;;;;;;;5078321;28;20473;-75
2021/12/16 13:10:48;;;;;;;19.73;11.43;;;;;;;;;;5079570;28;20420;-71
2021/12/16 13:15:56;;;;;;;19.80;11.43;;;;;;;;;;5079650;28;20405;-71
2021/12/16 13:27:09;;;;;;;24.17;12.40;;;;;;;;;;5070734;28;20416;-74
2021/12/16 13:29:54;;;;;;;21.13;12.10;;;;;;;;;;5078285;28;20403;-74
2021/12/16 13:32:29;;;;;;;23.17;11.47;;;;;;;;;;5079572;28;20400;-75
2021/12/16 13:35:11;;;;;;;19.93;12.50;;;;;;;;;;5078103;28;20527;-70
2021/12/16 13:37:42;;;;;;;22.73;13.07;;;;;;;;;;5079540;28;20404;-75
2021/12/16 13:40:14;;;;;;;21.30;12.37;;;;;;;;;;5077971;28;20522;-74
2021/12/16 13:42:51;;;;;;;19.60;11.50;;;;;;;;;;5079141;28;20416;-74
2021/12/16 13:45:26;;;;;;;22.23;12.37;;;;;;;;;;5078089;28;20895;-74
2021/12/16 14:02:04;;;;;;;18.70;11.40;;;;;;;;;;5079155;28;20479;-74
2021/12/16 14:10:02;;;;;;;25.33;12.03;;;;;;;;;;5079034;28;20935;-73
2021/12/16 14:15:27;;;;;;;23.77;13.27;;;;;;;;;;5076030;28;20485;-74
2021/12/16 14:18:04;;;;;;;20.90;11.67;;;;;;;;;;5075918;28;20414;-72
2021/12/16 14:23:23;;;;;;;20.10;12.23;;;;;;;;;;5075760;28;20393;-73
2021/12/16 14:32:55;;;;;;;23.80;11.80;;;;;;;;;;5075769;28;20396;-72
2021/12/16 14:34:53;;;;;;;17.33;10.00;;;;;;;;;;5066239;28;20441;-72
2021/12/16 14:45:28;;;;;;;19.60;10.47;;;;;;;;;;5075247;28;20415;-75
2021/12/16 14:48:09;;;;;;;20.83;12.87;;;;;;;;;;5075406;28;20387;-73
2021/12/16 14:50:41;;;;;;;21.50;11.80;;;;;;;;;;5074068;28;20416;-73
2021/12/16 14:53:14;;;;;;;76.63;22.20;;;;;;;;;;5075368;28;20415;-73
2021/12/16 14:55:40;;;;;;;45.37;19.63;;;;;;;;;;5075107;28;20492;-73
2021/12/16 14:58:06;;;;;;;56.17;18.17;;;;;;;;;;5074816;28;20967;-72
2021/12/16 15:00:38;;;;;;;67.43;21.50;;;;;;;;;;5073637;28;20486;-71
2021/12/16 15:03:08;;;;;;;25.23;12.27;;;;;;;;;;5074888;28;20485;-72
2021/12/16 15:05:41;;;;;;;33.13;13.97;;;;;;;;;;5073761;28;20900;-70
2021/12/16 15:08:20;;;;;;;22.17;12.30;;;;;;;;;;5075030;28;20765;-72
2021/12/16 15:10:46;;;;;;;22.20;12.50;;;;;;;;;;5074778;28;20905;-72
2021/12/16 15:13:23;;;;;;;21.70;12.07;;;;;;;;;;5073534;28;20409;-73
2021/12/16 15:16:21;;;;;;;24.00;12.00;;;;;;;;;;5074750;28;20421;-70
2021/12/16 15:45:12;;;;;;;16.03;11.00;;;;;;;;;;5074245;28;20404;-73
2021/12/16 15:47:43;;;;;;;21.33;11.73;;;;;;;;;;5073976;28;20431;-74
2021/12/16 15:50:10;;;;;;;20.50;12.77;;;;;;;;;;5074152;28;20946;-74
2021/12/16 15:52:41;;;;;;;22.10;12.77;;;;;;;;;;5074020;28;20448;-72
2021/12/16 15:55:08;;;;;;;22.63;12.00;;;;;;;;;;5073933;28;20892;-74
2021/12/16 15:57:34;;;;;;;19.83;11.20;;;;;;;;;;5073756;28;20523;-74
2021/12/16 16:00:26;;;;;;;23.60;14.10;;;;;;;;;;5073831;28;20416;-72
2021/12/16 16:02:55;;;;;;;22.03;13.77;;;;;;;;;;5070117;28;20444;-74
2021/12/16 16:05:21;;;;;;;19.07;12.40;;;;;;;;;;5073760;28;20405;-74
2021/12/16 16:07:47;;;;;;;19.67;11.30;;;;;;;;;;5073673;28;20409;-72
2021/12/16 16:10:15;;;;;;;21.27;12.47;;;;;;;;;;5073583;28;20485;-74
2021/12/16 16:12:41;;;;;;;17.90;12.20;;;;;;;;;;5072546;28;20424;-73
2021/12/16 16:15:16;;;;;;;26.63;13.10;;;;;;;;;;5073408;28;20773;-73
2021/12/16 16:17:53;;;;;;;19.27;11.33;;;;;;;;;;5073733;28;20410;-72
2021/12/16 16:20:19;;;;;;;20.13;12.03;;;;;;;;;;5073467;28;20415;-74
2021/12/16 16:22:46;;;;;;;20.07;11.40;;;;;;;;;;5072180;28;20428;-74
2021/12/16 16:25:12;;;;;;;22.03;12.17;;;;;;;;;;5072170;28;20767;-74
2021/12/16 16:27:38;;;;;;;20.63;12.00;;;;;;;;;;5073434;28;20910;-72
2021/12/16 16:30:07;;;;;;;23.70;12.00;;;;;;;;;;5073487;28;20878;-73
2021/12/16 16:32:51;;;;;;;19.37;12.00;;;;;;;;;;5072131;28;20454;-73
2021/12/16 16:35:18;;;;;;;17.93;10.77;;;;;;;;;;5073280;28;20443;-74
2021/12/16 16:37:44;;;;;;;20.20;11.87;;;;;;;;;;5072918;28;20416;-69
2021/12/16 16:40:11;;;;;;;23.50;12.43;;;;;;;;;;5073068;28;20416;-72
2021/12/16 16:42:38;;;;;;;20.70;12.23;;;;;;;;;;5072975;28;20409;-72
2021/12/16 16:45:06;;;;;;;19.30;11.83;;;;;;;;;;5073122;28;20397;-73
2021/12/16 16:47:45;;;;;;;19.90;12.13;;;;;;;;;;5073177;28;20412;-73
2021/12/16 16:50:12;;;;;;;22.50;13.03;;;;;;;;;;5073414;28;20411;-72
2021/12/16 16:52:40;;;;;;;17.70;10.70;;;;;;;;;;5073009;28;20465;-74
2021/12/16 16:55:09;;;;;;;20.43;11.83;;;;;;;;;;5073105;28;20405;-71
2021/12/16 16:57:37;;;;;;;18.90;11.20;;;;;;;;;;5073013;28;20591;-72
2021/12/16 17:00:13;;;;;;;17.77;11.43;;;;;;;;;;5071775;28;20416;-74
2021/12/16 17:02:41;;;;;;;18.07;11.17;;;;;;;;;;5072969;28;20421;-72
2021/12/16 17:05:25;;;;;;;18.80;11.70;;;;;;;;;;5073013;28;20478;-73
2021/12/16 17:08:03;;;;;;;18.40;11.10;;;;;;;;;;5072866;28;20392;-71
2021/12/16 17:10:40;;;;;;;18.67;11.87;;;;;;;;;;5073029;28;20423;-73
2021/12/16 17:13:13;;;;;;;19.70;12.23;;;;;;;;;;5072956;28;20393;-73
2021/12/16 17:18:21;;;;;;;20.17;11.27;;;;;;;;;;5072877;28;20407;-71
2021/12/16 17:20:48;;;;;;;20.67;11.73;;;;;;;;;;5072764;28;20452;-72
2021/12/16 17:23:14;;;;;;;14.97;10.30;;;;;;;;;;5072681;28;20408;-67
2021/12/16 17:25:40;;;;;;;17.60;10.83;;;;;;;;;;5072825;28;20401;-67
2021/12/16 17:28:07;;;;;;;16.03;10.20;;;;;;;;;;5072815;28;20393;-72
2021/12/16 17:30:34;;;;;;;13.90;10.03;;;;;;;;;;5072740;28;20407;-72
2021/12/16 17:33:00;;;;;;;15.57;11.17;;;;;;;;;;5072795;28;20417;-73
2021/12/16 17:35:34;;;;;;;19.57;10.40;;;;;;;;;;5072579;28;20397;-70
2021/12/16 17:38:02;;;;;;;20.90;12.00;;;;;;;;;;5072773;28;20404;-72
2021/12/16 17:40:37;;;;;;;16.57;10.70;;;;;;;;;;5072313;28;20821;-70
2021/12/16 17:43:14;;;;;;;14.13;10.57;;;;;;;;;;5072526;28;20400;-69
2021/12/16 17:45:43;;;;;;;17.60;10.97;;;;;;;;;;5072488;28;20431;-73
2021/12/16 17:48:11;;;;;;;24.13;12.47;;;;;;;;;;5072528;28;20418;-72
2021/12/16 17:50:43;;;;;;;16.57;11.40;;;;;;;;;;5074756;28;20901;-73
2021/12/16 17:53:09;;;;;;;14.20;9.77;;;;;;;;;;5076399;28;20424;-73
2021/12/16 17:55:37;;;;;;;20.83;11.20;;;;;;;;;;5076088;28;20462;-72
2021/12/16 17:58:09;;;;;;;15.57;11.60;;;;;;;;;;5076090;28;20447;-70
2021/12/16 18:00:56;;;;;;;17.33;11.00;;;;;;;;;;5076133;28;20444;-70
2021/12/16 18:03:25;;;;;;;19.10;11.67;;;;;;;;;;5075898;28;20470;-74
2021/12/16 18:05:53;;;;;;;16.67;11.70;;;;;;;;;;5076042;28;20412;-72
2021/12/16 18:08:28;;;;;;;15.20;10.43;;;;;;;;;;5076021;28;20397;-73
2021/12/16 18:10:54;;;;;;;17.73;11.53;;;;;;;;;;5075856;28;21023;-70
2021/12/16 18:13:32;;;;;;;16.27;11.80;;;;;;;;;;5075716;28;20477;-68
2021/12/16 18:15:58;;;;;;;18.67;12.60;;;;;;;;;;5075782;28;20401;-69
2021/12/16 18:18:25;;;;;;;18.87;12.03;;;;;;;;;;5074550;28;20418;-72